This is the latest recevied weather packets stored in our database for station/object IZ8GUM-10. If no packets are shown the sender has not sent any weather packets the latest 10 day(s).
| Time | Temp. | Humidity | Pressure | Rain* | Wind** | Luminosity | Snow |
|---|---|---|---|---|---|---|---|
| 1777539618 | 24.44° C | 51% | 1025.6 hPa | - | - | - | - |
| 1777538718 | 24.44° C | 51% | 1025.5 hPa | - | - | - | - |
| 1777537818 | 25° C | 51% | 1025.3 hPa | - | - | - | - |
| 1777536918 | 25° C | 51% | 1025.2 hPa | - | - | - | - |
| 1777536017 | 24.44° C | 51% | 1025.1 hPa | - | - | - | - |
| 1777535117 | 25° C | 51% | 1025.3 hPa | - | - | - | - |
| 1777534217 | 24.44° C | 52% | 1024.9 hPa | - | - | - | - |
| 1777533317 | 24.44° C | 52% | 1024.9 hPa | - | - | - | - |
| 1777532416 | 25° C | 52% | 1024.8 hPa | - | - | - | - |
| 1777531516 | 25° C | 52% | 1024.8 hPa | - | - | - | - |
| 1777530616 | 25° C | 52% | 1024.8 hPa | - | - | - | - |
| 1777529716 | 25° C | 52% | 1024.6 hPa | - | - | - | - |
| 1777528815 | 25° C | 52% | 1024.6 hPa | - | - | - | - |
| 1777527916 | 25° C | 52% | 1024.4 hPa | - | - | - | - |
| 1777527015 | 25.56° C | 51% | 1024.4 hPa | - | - | - | - |
| 1777526115 | 25° C | 52% | 1024.4 hPa | - | - | - | - |
| 1777525215 | 24.44° C | 54% | 1024.4 hPa | - | - | - | - |
| 1777524315 | 24.44° C | 54% | 1024.5 hPa | - | - | - | - |
| 1777523414 | 24.44° C | 54% | 1024.4 hPa | - | - | - | - |
| 1777522514 | 24.44° C | 55% | 1024.4 hPa | - | - | - | - |
| 1777521612 | 23.33° C | 59% | 1026 hPa | - | - | - | - |
| 1777484213 | 23.89° C | 50% | 1022.9 hPa | - | - | - | - |
| 1777483312 | 23.89° C | 50% | 1022.9 hPa | - | - | - | - |
| 1777482412 | 23.89° C | 50% | 1022.7 hPa | - | - | - | - |
| 1777481512 | 23.89° C | 50% | 1022.8 hPa | - | - | - | - |
* Rain since midnight (hover to see other rain measurements)
** Current wind speed in m/s (hover to see current wind gust speed)